sensor_id;sensor_type;location;lat;lon;timestamp;pressure;altitude;pressure_sealevel;temperature
40199;BMP280;25906;43.536;26.068;2022-09-09T00:00:35;98725.88;;;18.81
40199;BMP280;25906;43.536;26.068;2022-09-09T00:03:26;98720.63;;;18.70
40199;BMP280;25906;43.536;26.068;2022-09-09T00:06:28;98718.38;;;18.82
40199;BMP280;25906;43.536;26.068;2022-09-09T00:09:21;98716.72;;;18.75
40199;BMP280;25906;43.536;26.068;2022-09-09T00:12:15;98715.38;;;18.76
40199;BMP280;25906;43.536;26.068;2022-09-09T00:15:07;98708.56;;;18.77
40199;BMP280;25906;43.536;26.068;2022-09-09T00:21:13;98715.47;;;18.78
40199;BMP280;25906;43.536;26.068;2022-09-09T00:24:08;98715.38;;;18.76
40199;BMP280;25906;43.536;26.068;2022-09-09T00:27:01;98714.38;;;18.67
40199;BMP280;25906;43.536;26.068;2022-09-09T00:29:56;98714.53;;;18.71
40199;BMP280;25906;43.536;26.068;2022-09-09T00:32:43;98717.47;;;18.77
40199;BMP280;25906;43.536;26.068;2022-09-09T00:38:47;98715.94;;;18.72
40199;BMP280;25906;43.536;26.068;2022-09-09T00:44:38;98715.38;;;18.58
40199;BMP280;25906;43.536;26.068;2022-09-09T00:47:43;98717.16;;;18.52
40199;BMP280;25906;43.536;26.068;2022-09-09T00:53:38;98713.03;;;18.51
40199;BMP280;25906;43.536;26.068;2022-09-09T00:56:54;98697.16;;;18.49
40199;BMP280;25906;43.536;26.068;2022-09-09T00:59:52;98694.97;;;18.46
40199;BMP280;25906;43.536;26.068;2022-09-09T01:11:31;98707.09;;;18.41
40199;BMP280;25906;43.536;26.068;2022-09-09T01:17:30;98705.06;;;18.42
40199;BMP280;25906;43.536;26.068;2022-09-09T01:20:26;98700.84;;;18.39
40199;BMP280;25906;43.536;26.068;2022-09-09T01:26:41;98705.69;;;18.40
40199;BMP280;25906;43.536;26.068;2022-09-09T01:29:26;98697.22;;;18.34
40199;BMP280;25906;43.536;26.068;2022-09-09T01:32:38;98698.13;;;18.23
40199;BMP280;25906;43.536;26.068;2022-09-09T01:38:17;98693.38;;;18.24
40199;BMP280;25906;43.536;26.068;2022-09-09T01:41:03;98688.94;;;18.17
40199;BMP280;25906;43.536;26.068;2022-09-09T01:43:49;98678.88;;;18.21
40199;BMP280;25906;43.536;26.068;2022-09-09T01:46:36;98673.75;;;18.14
40199;BMP280;25906;43.536;26.068;2022-09-09T01:49:22;98675.63;;;18.09
40199;BMP280;25906;43.536;26.068;2022-09-09T01:52:08;98672.44;;;18.15
40199;BMP280;25906;43.536;26.068;2022-09-09T01:54:54;98682.59;;;18.12
40199;BMP280;25906;43.536;26.068;2022-09-09T02:00:43;98679.84;;;18.12
40199;BMP280;25906;43.536;26.068;2022-09-09T02:03:32;98674.53;;;18.16
40199;BMP280;25906;43.536;26.068;2022-09-09T02:06:28;98678.28;;;18.07
40199;BMP280;25906;43.536;26.068;2022-09-09T02:09:17;98677.63;;;18.09
40199;BMP280;25906;43.536;26.068;2022-09-09T02:12:14;98679.84;;;18.12
40199;BMP280;25906;43.536;26.068;2022-09-09T02:15:07;98683.13;;;18.09
40199;BMP280;25906;43.536;26.068;2022-09-09T02:17:57;98681.81;;;18.10
40199;BMP280;25906;43.536;26.068;2022-09-09T02:20:44;98673.25;;;18.02
40199;BMP280;25906;43.536;26.068;2022-09-09T02:23:31;98669.72;;;18.00
40199;BMP280;25906;43.536;26.068;2022-09-09T02:26:18;98667.22;;;18.05
40199;BMP280;25906;43.536;26.068;2022-09-09T02:29:12;98674.31;;;18.10
40199;BMP280;25906;43.536;26.068;2022-09-09T02:32:03;98674.91;;;18.09
40199;BMP280;25906;43.536;26.068;2022-09-09T02:34:58;98675.72;;;18.11
40199;BMP280;25906;43.536;26.068;2022-09-09T02:37:45;98666.78;;;18.11
40199;BMP280;25906;43.536;26.068;2022-09-09T02:40:31;98670.06;;;18.07
40199;BMP280;25906;43.536;26.068;2022-09-09T02:43:17;98669.81;;;18.02
40199;BMP280;25906;43.536;26.068;2022-09-09T02:49:37;98672.81;;;18.07
40199;BMP280;25906;43.536;26.068;2022-09-09T02:55:54;98668.47;;;18.03
40199;BMP280;25906;43.536;26.068;2022-09-09T02:58:42;98679.88;;;17.97
40199;BMP280;25906;43.536;26.068;2022-09-09T03:01:27;98688.09;;;17.97
40199;BMP280;25906;43.536;26.068;2022-09-09T03:04:13;98678.41;;;17.94
40199;BMP280;25906;43.536;26.068;2022-09-09T03:06:59;98679.09;;;17.95
40199;BMP280;25906;43.536;26.068;2022-09-09T03:09:44;98673.44;;;17.75
40199;BMP280;25906;43.536;26.068;2022-09-09T03:12:30;98677.97;;;17.84
40199;BMP280;25906;43.536;26.068;2022-09-09T03:15:18;98676.72;;;17.87
40199;BMP280;25906;43.536;26.068;2022-09-09T03:18:04;98675.25;;;17.69
40199;BMP280;25906;43.536;26.068;2022-09-09T03:20:50;98675.78;;;17.65
40199;BMP280;25906;43.536;26.068;2022-09-09T03:23:36;98667.41;;;17.62
40199;BMP280;25906;43.536;26.068;2022-09-09T03:26:21;98667.97;;;17.60
40199;BMP280;25906;43.536;26.068;2022-09-09T03:29:13;98666.38;;;17.55
40199;BMP280;25906;43.536;26.068;2022-09-09T03:31:59;98670.13;;;17.62
40199;BMP280;25906;43.536;26.068;2022-09-09T03:34:45;98675.13;;;17.52
40199;BMP280;25906;43.536;26.068;2022-09-09T03:37:33;98670.81;;;17.47
40199;BMP280;25906;43.536;26.068;2022-09-09T03:40:18;98673.38;;;17.43
40199;BMP280;25906;43.536;26.068;2022-09-09T03:43:05;98665.81;;;17.41
40199;BMP280;25906;43.536;26.068;2022-09-09T03:45:50;98672.34;;;17.50
40199;BMP280;25906;43.536;26.068;2022-09-09T03:48:36;98661.69;;;17.42
40199;BMP280;25906;43.536;26.068;2022-09-09T03:51:21;98662.59;;;17.47
40199;BMP280;25906;43.536;26.068;2022-09-09T03:54:07;98651.81;;;17.51
40199;BMP280;25906;43.536;26.068;2022-09-09T03:56:55;98654.81;;;17.57
40199;BMP280;25906;43.536;26.068;2022-09-09T03:59:40;98652.81;;;17.57
40199;BMP280;25906;43.536;26.068;2022-09-09T04:02:26;98653.75;;;17.63
40199;BMP280;25906;43.536;26.068;2022-09-09T04:05:12;98659.41;;;17.67
40199;BMP280;25906;43.536;26.068;2022-09-09T04:07:59;98664.97;;;17.69
40199;BMP280;25906;43.536;26.068;2022-09-09T04:10:47;98662.97;;;17.70
40199;BMP280;25906;43.536;26.068;2022-09-09T04:13:34;98667.72;;;17.69
40199;BMP280;25906;43.536;26.068;2022-09-09T04:16:20;98669.03;;;17.68
40199;BMP280;25906;43.536;26.068;2022-09-09T04:19:05;98673.38;;;17.73
40199;BMP280;25906;43.536;26.068;2022-09-09T04:21:52;98668.06;;;17.77
40199;BMP280;25906;43.536;26.068;2022-09-09T04:24:38;98672.06;;;17.74
40199;BMP280;25906;43.536;26.068;2022-09-09T04:27:24;98666.81;;;17.80
40199;BMP280;25906;43.536;26.068;2022-09-09T04:30:10;98666.28;;;17.84
40199;BMP280;25906;43.536;26.068;2022-09-09T04:32:56;98669.81;;;17.86
40199;BMP280;25906;43.536;26.068;2022-09-09T04:35:46;98677.09;;;17.95
40199;BMP280;25906;43.536;26.068;2022-09-09T04:38:32;98672.91;;;17.94
40199;BMP280;25906;43.536;26.068;2022-09-09T04:41:18;98671.59;;;17.95
40199;BMP280;25906;43.536;26.068;2022-09-09T04:44:04;98679.63;;;17.91
40199;BMP280;25906;43.536;26.068;2022-09-09T04:46:49;98682.44;;;17.93
40199;BMP280;25906;43.536;26.068;2022-09-09T04:49:35;98685.91;;;17.94
40199;BMP280;25906;43.536;26.068;2022-09-09T04:52:21;98682.56;;;17.95
40199;BMP280;25906;43.536;26.068;2022-09-09T04:55:07;98669.19;;;18.03
40199;BMP280;25906;43.536;26.068;2022-09-09T04:57:52;98675.44;;;18.05
40199;BMP280;25906;43.536;26.068;2022-09-09T05:00:39;98673.03;;;18.13
40199;BMP280;25906;43.536;26.068;2022-09-09T05:03:24;98678.00;;;18.17
40199;BMP280;25906;43.536;26.068;2022-09-09T05:06:12;98676.13;;;18.21
40199;BMP280;25906;43.536;26.068;2022-09-09T05:08:58;98670.72;;;18.23
40199;BMP280;25906;43.536;26.068;2022-09-09T05:11:44;98680.59;;;18.30
40199;BMP280;25906;43.536;26.068;2022-09-09T05:14:29;98689.91;;;18.23
40199;BMP280;25906;43.536;26.068;2022-09-09T05:17:15;98673.81;;;18.31
40199;BMP280;25906;43.536;26.068;2022-09-09T05:20:01;98679.28;;;18.31
40199;BMP280;25906;43.536;26.068;2022-09-09T05:22:48;98685.81;;;18.40
40199;BMP280;25906;43.536;26.068;2022-09-09T05:25:37;98687.63;;;18.50
40199;BMP280;25906;43.536;26.068;2022-09-09T05:28:27;98689.13;;;18.53
40199;BMP280;25906;43.536;26.068;2022-09-09T05:31:14;98667.44;;;18.59
40199;BMP280;25906;43.536;26.068;2022-09-09T05:34:01;98674.50;;;18.64
40199;BMP280;25906;43.536;26.068;2022-09-09T05:36:46;98675.41;;;18.71
40199;BMP280;25906;43.536;26.068;2022-09-09T05:39:32;98675.75;;;18.79
40199;BMP280;25906;43.536;26.068;2022-09-09T05:42:18;98678.69;;;18.85
40199;BMP280;25906;43.536;26.068;2022-09-09T05:45:04;98678.63;;;19.00
40199;BMP280;25906;43.536;26.068;2022-09-09T05:47:51;98672.88;;;19.11
40199;BMP280;25906;43.536;26.068;2022-09-09T05:50:38;98666.34;;;19.20
40199;BMP280;25906;43.536;26.068;2022-09-09T05:53:25;98668.81;;;19.31
40199;BMP280;25906;43.536;26.068;2022-09-09T05:56:15;98674.75;;;19.43
40199;BMP280;25906;43.536;26.068;2022-09-09T05:59:01;98681.50;;;19.58
40199;BMP280;25906;43.536;26.068;2022-09-09T06:01:46;98670.22;;;19.69
40199;BMP280;25906;43.536;26.068;2022-09-09T06:04:32;98672.78;;;19.84
40199;BMP280;25906;43.536;26.068;2022-09-09T06:07:18;98678.09;;;19.98
40199;BMP280;25906;43.536;26.068;2022-09-09T06:10:05;98675.59;;;20.06
40199;BMP280;25906;43.536;26.068;2022-09-09T06:12:52;98661.47;;;20.15
40199;BMP280;25906;43.536;26.068;2022-09-09T06:15:38;98665.47;;;20.31
40199;BMP280;25906;43.536;26.068;2022-09-09T06:18:24;98645.91;;;20.43
40199;BMP280;25906;43.536;26.068;2022-09-09T06:21:31;98651.88;;;20.58
40199;BMP280;25906;43.536;26.068;2022-09-09T06:24:17;98661.09;;;20.67
40199;BMP280;25906;43.536;26.068;2022-09-09T06:27:04;98662.88;;;20.80
40199;BMP280;25906;43.536;26.068;2022-09-09T06:29:50;98668.81;;;20.93
40199;BMP280;25906;43.536;26.068;2022-09-09T06:32:36;98667.66;;;21.00
40199;BMP280;25906;43.536;26.068;2022-09-09T06:35:23;98664.44;;;21.08
40199;BMP280;25906;43.536;26.068;2022-09-09T06:38:08;98667.97;;;21.12
40199;BMP280;25906;43.536;26.068;2022-09-09T06:40:55;98662.19;;;21.26
40199;BMP280;25906;43.536;26.068;2022-09-09T06:43:41;98663.78;;;21.32
40199;BMP280;25906;43.536;26.068;2022-09-09T06:46:28;98657.81;;;21.42
40199;BMP280;25906;43.536;26.068;2022-09-09T06:49:15;98667.81;;;21.55
40199;BMP280;25906;43.536;26.068;2022-09-09T06:52:01;98672.38;;;21.69
40199;BMP280;25906;43.536;26.068;2022-09-09T06:54:46;98669.97;;;21.83
40199;BMP280;25906;43.536;26.068;2022-09-09T06:57:32;98682.19;;;22.03
40199;BMP280;25906;43.536;26.068;2022-09-09T07:00:17;98683.91;;;22.16
40199;BMP280;25906;43.536;26.068;2022-09-09T07:03:03;98679.44;;;22.31
40199;BMP280;25906;43.536;26.068;2022-09-09T07:05:55;98687.34;;;22.44
40199;BMP280;25906;43.536;26.068;2022-09-09T07:08:41;98677.34;;;22.58
40199;BMP280;25906;43.536;26.068;2022-09-09T07:11:29;98670.78;;;22.73
40199;BMP280;25906;43.536;26.068;2022-09-09T07:14:15;98679.41;;;22.89
40199;BMP280;25906;43.536;26.068;2022-09-09T07:17:02;98679.66;;;23.01
40199;BMP280;25906;43.536;26.068;2022-09-09T07:19:47;98676.47;;;23.12
40199;BMP280;25906;43.536;26.068;2022-09-09T07:22:33;98660.22;;;23.30
40199;BMP280;25906;43.536;26.068;2022-09-09T07:25:18;98668.81;;;23.44
40199;BMP280;25906;43.536;26.068;2022-09-09T07:28:06;98665.53;;;23.53
40199;BMP280;25906;43.536;26.068;2022-09-09T07:31:01;98662.50;;;23.76
40199;BMP280;25906;43.536;26.068;2022-09-09T07:33:50;98659.25;;;23.89
40199;BMP280;25906;43.536;26.068;2022-09-09T07:36:37;98668.47;;;24.02
40199;BMP280;25906;43.536;26.068;2022-09-09T07:39:23;98660.22;;;24.06
40199;BMP280;25906;43.536;26.068;2022-09-09T07:42:09;98661.19;;;24.22
40199;BMP280;25906;43.536;26.068;2022-09-09T07:44:56;98667.03;;;24.42
40199;BMP280;25906;43.536;26.068;2022-09-09T07:47:42;98658.28;;;24.59
40199;BMP280;25906;43.536;26.068;2022-09-09T07:50:28;98665.59;;;24.90
40199;BMP280;25906;43.536;26.068;2022-09-09T07:53:13;98665.16;;;25.11
40199;BMP280;25906;43.536;26.068;2022-09-09T07:56:04;98663.16;;;25.19
40199;BMP280;25906;43.536;26.068;2022-09-09T07:58:51;98662.72;;;25.40
40199;BMP280;25906;43.536;26.068;2022-09-09T08:01:43;98677.41;;;25.51
40199;BMP280;25906;43.536;26.068;2022-09-09T08:04:29;98677.59;;;25.71
40199;BMP280;25906;43.536;26.068;2022-09-09T08:07:14;98679.13;;;25.85
40199;BMP280;25906;43.536;26.068;2022-09-09T08:10:02;98684.81;;;26.03
40199;BMP280;25906;43.536;26.068;2022-09-09T08:12:48;98677.84;;;25.98
40199;BMP280;25906;43.536;26.068;2022-09-09T08:15:34;98681.41;;;26.10
40199;BMP280;25906;43.536;26.068;2022-09-09T08:18:19;98675.88;;;26.10
40199;BMP280;25906;43.536;26.068;2022-09-09T08:23:52;98676.72;;;26.39
40199;BMP280;25906;43.536;26.068;2022-09-09T08:26:41;98674.78;;;26.63
40199;BMP280;25906;43.536;26.068;2022-09-09T08:29:27;98680.44;;;26.77
40199;BMP280;25906;43.536;26.068;2022-09-09T08:32:13;98669.34;;;26.82
40199;BMP280;25906;43.536;26.068;2022-09-09T08:34:59;98654.13;;;26.99
40199;BMP280;25906;43.536;26.068;2022-09-09T08:37:44;98661.81;;;27.22
40199;BMP280;25906;43.536;26.068;2022-09-09T08:40:33;98655.56;;;27.28
40199;BMP280;25906;43.536;26.068;2022-09-09T08:43:23;98645.16;;;27.34
40199;BMP280;25906;43.536;26.068;2022-09-09T08:46:14;98642.41;;;27.50
40199;BMP280;25906;43.536;26.068;2022-09-09T08:49:22;98641.00;;;27.67
40199;BMP280;25906;43.536;26.068;2022-09-09T08:52:28;98640.31;;;27.82
40199;BMP280;25906;43.536;26.068;2022-09-09T08:58:14;98624.31;;;28.04
40199;BMP280;25906;43.536;26.068;2022-09-09T09:04:33;98620.09;;;28.21
40199;BMP280;25906;43.536;26.068;2022-09-09T09:07:48;98625.63;;;28.31
40199;BMP280;25906;43.536;26.068;2022-09-09T09:10:50;98633.22;;;28.46
40199;BMP280;25906;43.536;26.068;2022-09-09T09:14:00;98625.50;;;28.62
40199;BMP280;25906;43.536;26.068;2022-09-09T09:16:57;98615.00;;;28.73
40199;BMP280;25906;43.536;26.068;2022-09-09T09:19:44;98619.13;;;28.84
40199;BMP280;25906;43.536;26.068;2022-09-09T09:22:41;98628.88;;;28.85
40199;BMP280;25906;43.536;26.068;2022-09-09T09:25:35;98623.25;;;28.88
40199;BMP280;25906;43.536;26.068;2022-09-09T09:28:25;98620.41;;;29.00
40199;BMP280;25906;43.536;26.068;2022-09-09T09:31:13;98618.31;;;29.03
40199;BMP280;25906;43.536;26.068;2022-09-09T09:33:59;98623.19;;;29.06
40199;BMP280;25906;43.536;26.068;2022-09-09T09:36:53;98617.66;;;28.98
40199;BMP280;25906;43.536;26.068;2022-09-09T09:39:39;98610.66;;;29.01
40199;BMP280;25906;43.536;26.068;2022-09-09T09:42:25;98611.25;;;29.16
40199;BMP280;25906;43.536;26.068;2022-09-09T09:45:43;98600.59;;;29.42
40199;BMP280;25906;43.536;26.068;2022-09-09T09:48:30;98608.94;;;29.44
40199;BMP280;25906;43.536;26.068;2022-09-09T09:51:16;98603.41;;;29.40
40199;BMP280;25906;43.536;26.068;2022-09-09T09:56:54;98595.53;;;29.62
40199;BMP280;25906;43.536;26.068;2022-09-09T09:59:41;98592.63;;;29.74
40199;BMP280;25906;43.536;26.068;2022-09-09T10:02:37;98589.09;;;29.79
40199;BMP280;25906;43.536;26.068;2022-09-09T10:05:31;98590.50;;;29.78
40199;BMP280;25906;43.536;26.068;2022-09-09T10:08:17;98594.59;;;29.87
40199;BMP280;25906;43.536;26.068;2022-09-09T10:14:19;98595.25;;;29.89
40199;BMP280;25906;43.536;26.068;2022-09-09T10:17:09;98591.69;;;29.97
40199;BMP280;25906;43.536;26.068;2022-09-09T10:20:24;98591.53;;;30.11
40199;BMP280;25906;43.536;26.068;2022-09-09T10:26:35;98597.38;;;30.47
40199;BMP280;25906;43.536;26.068;2022-09-09T10:32:40;98589.56;;;30.57
40199;BMP280;25906;43.536;26.068;2022-09-09T10:35:30;98592.00;;;30.33
40199;BMP280;25906;43.536;26.068;2022-09-09T10:38:25;98592.59;;;30.37
40199;BMP280;25906;43.536;26.068;2022-09-09T10:48:00;98572.56;;;30.21
40199;BMP280;25906;43.536;26.068;2022-09-09T10:51:02;98578.06;;;30.27
40199;BMP280;25906;43.536;26.068;2022-09-09T10:54:13;98580.72;;;30.39
40199;BMP280;25906;43.536;26.068;2022-09-09T10:57:14;98583.28;;;30.56
40199;BMP280;25906;43.536;26.068;2022-09-09T11:00:06;98573.22;;;30.75
40199;BMP280;25906;43.536;26.068;2022-09-09T11:03:02;98577.47;;;30.72
40199;BMP280;25906;43.536;26.068;2022-09-09T11:05:54;98575.50;;;30.61
40199;BMP280;25906;43.536;26.068;2022-09-09T11:08:42;98572.72;;;30.63
40199;BMP280;25906;43.536;26.068;2022-09-09T11:11:51;98573.34;;;30.67
40199;BMP280;25906;43.536;26.068;2022-09-09T11:14:45;98576.81;;;30.66
40199;BMP280;25906;43.536;26.068;2022-09-09T11:17:38;98570.06;;;30.53
40199;BMP280;25906;43.536;26.068;2022-09-09T11:20:26;98569.91;;;30.61
40199;BMP280;25906;43.536;26.068;2022-09-09T11:23:17;98560.75;;;30.66
40199;BMP280;25906;43.536;26.068;2022-09-09T11:26:05;98571.81;;;30.74
40199;BMP280;25906;43.536;26.068;2022-09-09T11:38:25;98553.38;;;30.43
40199;BMP280;25906;43.536;26.068;2022-09-09T11:41:11;98552.63;;;30.51
40199;BMP280;25906;43.536;26.068;2022-09-09T11:43:58;98557.16;;;30.74
40199;BMP280;25906;43.536;26.068;2022-09-09T11:46:46;98559.84;;;30.82
40199;BMP280;25906;43.536;26.068;2022-09-09T11:49:41;98552.56;;;31.00
40199;BMP280;25906;43.536;26.068;2022-09-09T11:52:38;98550.06;;;30.81
40199;BMP280;25906;43.536;26.068;2022-09-09T11:55:26;98550.34;;;30.63
40199;BMP280;25906;43.536;26.068;2022-09-09T12:00:58;98539.88;;;30.61
40199;BMP280;25906;43.536;26.068;2022-09-09T12:03:51;98547.47;;;30.67
40199;BMP280;25906;43.536;26.068;2022-09-09T12:06:56;98542.41;;;30.79
40199;BMP280;25906;43.536;26.068;2022-09-09T12:09:52;98545.81;;;30.86
40199;BMP280;25906;43.536;26.068;2022-09-09T12:12:41;98545.19;;;30.79
40199;BMP280;25906;43.536;26.068;2022-09-09T12:15:28;98531.41;;;30.63
40199;BMP280;25906;43.536;26.068;2022-09-09T12:18:22;98531.50;;;30.59
40199;BMP280;25906;43.536;26.068;2022-09-09T12:21:39;98527.97;;;30.61
40199;BMP280;25906;43.536;26.068;2022-09-09T12:24:33;98522.28;;;30.67
40199;BMP280;25906;43.536;26.068;2022-09-09T12:27:26;98525.16;;;30.65
40199;BMP280;25906;43.536;26.068;2022-09-09T12:30:17;98508.31;;;30.67
40199;BMP280;25906;43.536;26.068;2022-09-09T12:33:10;98506.09;;;30.75
40199;BMP280;25906;43.536;26.068;2022-09-09T12:35:58;98506.81;;;30.76
40199;BMP280;25906;43.536;26.068;2022-09-09T12:38:46;98505.91;;;30.87
40199;BMP280;25906;43.536;26.068;2022-09-09T12:41:31;98505.91;;;30.87
40199;BMP280;25906;43.536;26.068;2022-09-09T12:44:17;98502.34;;;30.90
40199;BMP280;25906;43.536;26.068;2022-09-09T12:47:03;98499.56;;;30.88
40199;BMP280;25906;43.536;26.068;2022-09-09T12:49:49;98496.47;;;31.06
40199;BMP280;25906;43.536;26.068;2022-09-09T12:52:36;98488.69;;;31.11
40199;BMP280;25906;43.536;26.068;2022-09-09T12:55:28;98484.13;;;30.93
40199;BMP280;25906;43.536;26.068;2022-09-09T12:58:17;98484.25;;;30.84
40199;BMP280;25906;43.536;26.068;2022-09-09T13:01:05;98485.19;;;30.68
40199;BMP280;25906;43.536;26.068;2022-09-09T13:03:51;98473.59;;;30.52
40199;BMP280;25906;43.536;26.068;2022-09-09T13:06:37;98463.91;;;30.47
40199;BMP280;25906;43.536;26.068;2022-09-09T13:09:23;98466.97;;;30.29
40199;BMP280;25906;43.536;26.068;2022-09-09T13:12:21;98460.06;;;30.20
40199;BMP280;25906;43.536;26.068;2022-09-09T13:15:19;98468.53;;;30.17
40199;BMP280;25906;43.536;26.068;2022-09-09T13:18:30;98460.72;;;30.25
40199;BMP280;25906;43.536;26.068;2022-09-09T13:21:16;98457.16;;;30.28
40199;BMP280;25906;43.536;26.068;2022-09-09T13:24:30;98464.28;;;30.19
40199;BMP280;25906;43.536;26.068;2022-09-09T13:31:05;98458.78;;;30.14
40199;BMP280;25906;43.536;26.068;2022-09-09T13:33:52;98453.19;;;30.14
40199;BMP280;25906;43.536;26.068;2022-09-09T13:36:38;98453.22;;;30.12
40199;BMP280;25906;43.536;26.068;2022-09-09T13:39:26;98456.19;;;30.00
40199;BMP280;25906;43.536;26.068;2022-09-09T13:42:23;98453.44;;;29.96
40199;BMP280;25906;43.536;26.068;2022-09-09T13:45:22;98453.41;;;30.00
40199;BMP280;25906;43.536;26.068;2022-09-09T13:48:09;98457.00;;;29.90
40199;BMP280;25906;43.536;26.068;2022-09-09T13:51:03;98454.22;;;29.88
40199;BMP280;25906;43.536;26.068;2022-09-09T13:53:52;98459.28;;;29.74
40199;BMP280;25906;43.536;26.068;2022-09-09T13:56:38;98454.38;;;29.77
40199;BMP280;25906;43.536;26.068;2022-09-09T13:59:24;98449.66;;;29.63
40199;BMP280;25906;43.536;26.068;2022-09-09T14:02:11;98443.44;;;29.57
40199;BMP280;25906;43.536;26.068;2022-09-09T14:04:56;98442.19;;;29.42
40199;BMP280;25906;43.536;26.068;2022-09-09T14:07:42;98441.56;;;29.36
40199;BMP280;25906;43.536;26.068;2022-09-09T14:10:29;98439.63;;;29.24
40199;BMP280;25906;43.536;26.068;2022-09-09T14:13:14;98441.75;;;29.18
40199;BMP280;25906;43.536;26.068;2022-09-09T14:16:00;98437.00;;;29.05
40199;BMP280;25906;43.536;26.068;2022-09-09T14:18:46;98439.81;;;29.03
40199;BMP280;25906;43.536;26.068;2022-09-09T14:21:31;98427.34;;;28.94
40199;BMP280;25906;43.536;26.068;2022-09-09T14:24:17;98426.59;;;29.01
40199;BMP280;25906;43.536;26.068;2022-09-09T14:27:03;98418.25;;;28.97
40199;BMP280;25906;43.536;26.068;2022-09-09T14:29:48;98421.06;;;28.95
40199;BMP280;25906;43.536;26.068;2022-09-09T14:32:34;98418.97;;;28.96
40199;BMP280;25906;43.536;26.068;2022-09-09T14:35:19;98411.94;;;28.99
40199;BMP280;25906;43.536;26.068;2022-09-09T14:38:05;98412.66;;;29.01
40199;BMP280;25906;43.536;26.068;2022-09-09T14:40:50;98413.41;;;28.96
40199;BMP280;25906;43.536;26.068;2022-09-09T14:43:37;98421.09;;;28.89
40199;BMP280;25906;43.536;26.068;2022-09-09T14:46:23;98417.72;;;28.79
40199;BMP280;25906;43.536;26.068;2022-09-09T14:49:09;98421.94;;;28.72
40199;BMP280;25906;43.536;26.068;2022-09-09T14:51:55;98414.31;;;28.69
40199;BMP280;25906;43.536;26.068;2022-09-09T14:54:40;98426.88;;;28.66
40199;BMP280;25906;43.536;26.068;2022-09-09T14:57:26;98419.97;;;28.57
40199;BMP280;25906;43.536;26.068;2022-09-09T15:00:11;98418.66;;;28.48
40199;BMP280;25906;43.536;26.068;2022-09-09T15:02:58;98426.38;;;28.38
40199;BMP280;25906;43.536;26.068;2022-09-09T15:05:43;98427.78;;;28.35
40199;BMP280;25906;43.536;26.068;2022-09-09T15:08:30;98420.88;;;28.28
40199;BMP280;25906;43.536;26.068;2022-09-09T15:11:16;98423.72;;;28.20
40199;BMP280;25906;43.536;26.068;2022-09-09T15:14:01;98435.56;;;28.15
40199;BMP280;25906;43.536;26.068;2022-09-09T15:16:47;98433.53;;;28.03
40199;BMP280;25906;43.536;26.068;2022-09-09T15:19:32;98431.53;;;27.90
40199;BMP280;25906;43.536;26.068;2022-09-09T15:22:18;98434.34;;;27.84
40199;BMP280;25906;43.536;26.068;2022-09-09T15:25:04;98437.81;;;27.84
40199;BMP280;25906;43.536;26.068;2022-09-09T15:27:50;98439.22;;;27.78
40199;BMP280;25906;43.536;26.068;2022-09-09T15:30:36;98435.06;;;27.73
40199;BMP280;25906;43.536;26.068;2022-09-09T15:33:22;98432.28;;;27.71
40199;BMP280;25906;43.536;26.068;2022-09-09T15:36:25;98433.00;;;27.69
40199;BMP280;25906;43.536;26.068;2022-09-09T15:39:12;98435.78;;;27.63
40199;BMP280;25906;43.536;26.068;2022-09-09T15:42:00;98444.84;;;27.62
40199;BMP280;25906;43.536;26.068;2022-09-09T15:44:46;98464.34;;;27.58
40199;BMP280;25906;43.536;26.068;2022-09-09T15:47:32;98462.25;;;27.60
40199;BMP280;25906;43.536;26.068;2022-09-09T15:50:18;98469.19;;;27.53
40199;BMP280;25906;43.536;26.068;2022-09-09T15:53:03;98468.53;;;27.41
40199;BMP280;25906;43.536;26.068;2022-09-09T15:55:54;98464.38;;;27.34
40199;BMP280;25906;43.536;26.068;2022-09-09T15:58:40;98464.38;;;27.18
40199;BMP280;25906;43.536;26.068;2022-09-09T16:01:30;98448.41;;;27.05
40199;BMP280;25906;43.536;26.068;2022-09-09T16:04:16;98451.19;;;27.01
40199;BMP280;25906;43.536;26.068;2022-09-09T16:07:08;98451.19;;;27.07
40199;BMP280;25906;43.536;26.068;2022-09-09T16:09:53;98453.97;;;27.19
40199;BMP280;25906;43.536;26.068;2022-09-09T16:12:39;98456.03;;;27.14
40199;BMP280;25906;43.536;26.068;2022-09-09T16:15:25;98466.47;;;27.20
40199;BMP280;25906;43.536;26.068;2022-09-09T16:18:10;98453.97;;;27.01
40199;BMP280;25906;43.536;26.068;2022-09-09T16:20:56;98443.53;;;26.98
40199;BMP280;25906;43.536;26.068;2022-09-09T16:23:41;98447.69;;;26.79
40199;BMP280;25906;43.536;26.068;2022-09-09T16:26:27;98451.16;;;26.62
40199;BMP280;25906;43.536;26.068;2022-09-09T16:29:14;98458.09;;;26.63
40199;BMP280;25906;43.536;26.068;2022-09-09T16:32:00;98451.84;;;26.62
40199;BMP280;25906;43.536;26.068;2022-09-09T16:34:46;98448.38;;;26.58
40199;BMP280;25906;43.536;26.068;2022-09-09T16:37:31;98444.19;;;26.55
40199;BMP280;25906;43.536;26.068;2022-09-09T16:40:19;98454.59;;;26.43
40199;BMP280;25906;43.536;26.068;2022-09-09T16:43:04;98451.75;;;26.33
40199;BMP280;25906;43.536;26.068;2022-09-09T16:45:50;98454.50;;;26.23
40199;BMP280;25906;43.536;26.068;2022-09-09T16:48:36;98452.38;;;26.09
40199;BMP280;25906;43.536;26.068;2022-09-09T16:51:25;98450.19;;;25.80
40199;BMP280;25906;43.536;26.068;2022-09-09T16:54:11;98449.41;;;25.72
40199;BMP280;25906;43.536;26.068;2022-09-09T16:56:59;98445.25;;;25.73
40199;BMP280;25906;43.536;26.068;2022-09-09T16:59:44;98448.78;;;25.79
40199;BMP280;25906;43.536;26.068;2022-09-09T17:02:30;98456.34;;;25.71
40199;BMP280;25906;43.536;26.068;2022-09-09T17:05:16;98465.34;;;25.68
40199;BMP280;25906;43.536;26.068;2022-09-09T17:08:02;98469.50;;;25.67
40199;BMP280;25906;43.536;26.068;2022-09-09T17:10:47;98478.47;;;25.57
40199;BMP280;25906;43.536;26.068;2022-09-09T17:13:33;98477.66;;;25.43
40199;BMP280;25906;43.536;26.068;2022-09-09T17:16:20;98476.09;;;25.22
40199;BMP280;25906;43.536;26.068;2022-09-09T17:19:09;98467.75;;;25.16
40199;BMP280;25906;43.536;26.068;2022-09-09T17:21:55;98475.28;;;25.08
40199;BMP280;25906;43.536;26.068;2022-09-09T17:24:42;98476.00;;;25.10